Time;durP1;ratioP1;P1;durP2;ratioP2;P2;SDS_P1;SDS_P2;PMS_P1;PMS_P2;Temp;Humidity;BMP_temperature;BMP_pressure;BME280_temperature;BME280_humidity;BME280_pressure;Samples;Min_cycle;Max_cycle;Signal;HPM_P1;HPM_P2
2022/08/11 00:02:31;;;;;;;10.90;5.70;;;19.70;99.90;;;;;;5094328;28;20050;-75
2022/08/11 00:05:05;;;;;;;8.90;5.97;;;19.50;99.90;;;;;;5094056;28;20049;-75
2022/08/11 00:07:31;;;;;;;8.80;5.78;;;19.50;99.90;;;;;;5075761;28;20059;-75
2022/08/11 00:09:59;;;;;;;9.80;5.80;;;19.50;99.90;;;;;;5094222;28;20040;-75
2022/08/11 00:12:25;;;;;;;8.05;5.72;;;19.50;99.90;;;;;;5094103;28;20093;-75
2022/08/11 00:14:59;;;;;;;10.13;6.80;;;19.50;99.90;;;;;;5093702;28;20043;-75
2022/08/11 00:17:28;;;;;;;10.20;5.93;;;19.40;99.90;;;;;;5093893;28;20040;-75
2022/08/11 00:20:02;;;;;;;9.45;6.13;;;19.40;99.90;;;;;;5093776;28;20779;-75
2022/08/11 00:22:29;;;;;;;7.80;6.18;;;19.40;99.90;;;;;;5093530;28;20043;-75
2022/08/11 00:24:55;;;;;;;9.57;6.53;;;19.60;99.90;;;;;;5093914;28;20052;-75
2022/08/11 00:27:32;;;;;;;9.60;6.45;;;19.30;99.90;;;;;;5093870;28;20036;-73
2022/08/11 00:29:57;;;;;;;9.52;6.07;;;19.30;99.90;;;;;;5093762;28;20059;-74
2022/08/11 00:32:23;;;;;;;11.02;6.05;;;19.30;99.90;;;;;;5093396;28;20056;-74
2022/08/11 00:34:50;;;;;;;9.82;6.28;;;19.20;99.90;;;;;;5093650;28;20048;-74
2022/08/11 00:37:19;;;;;;;10.32;6.38;;;19.30;99.90;;;;;;5093680;28;20040;-74
2022/08/11 00:39:50;;;;;;;8.40;5.90;;;19.20;99.90;;;;;;5093855;28;20392;-74
2022/08/11 00:42:25;;;;;;;8.20;5.22;;;19.20;99.90;;;;;;5058668;28;20048;-74
2022/08/11 00:45:09;;;;;;;8.98;6.15;;;19.20;99.90;;;;;;5093396;28;20122;-74
2022/08/11 00:47:54;;;;;;;10.35;6.10;;;19.20;99.90;;;;;;5093507;28;20119;-73
2022/08/11 00:50:43;;;;;;;9.98;6.20;;;19.10;99.90;;;;;;5058616;28;20048;-74
2022/08/11 00:53:39;;;;;;;8.00;5.55;;;19.10;99.90;;;;;;5093247;28;20403;-74
2022/08/11 00:56:39;;;;;;;6.78;5.07;;;19.10;99.90;;;;;;5093103;28;20055;-74
2022/08/11 00:59:07;;;;;;;10.35;5.85;;;19.00;99.90;;;;;;5093450;28;20062;-74
2022/08/11 01:01:58;;;;;;;10.93;5.85;;;19.00;99.90;;;;;;5109159;28;20047;-74
2022/08/11 01:05:03;;;;;;;7.10;5.68;;;19.00;99.90;;;;;;5093045;28;20055;-74
2022/08/11 01:07:52;;;;;;;9.05;5.38;;;19.00;99.90;;;;;;5093148;28;20086;-74
2022/08/11 01:10:46;;;;;;;11.20;6.15;;;18.90;99.90;;;;;;5092870;28;20070;-74
2022/08/11 01:13:38;;;;;;;9.88;5.95;;;18.90;99.90;;;;;;5081709;28;20125;-74
2022/08/11 01:16:25;;;;;;;8.75;5.72;;;18.90;99.90;;;;;;5091018;28;20052;-74
2022/08/11 01:18:54;;;;;;;10.88;6.10;;;18.90;99.90;;;;;;5093046;28;20561;-74
2022/08/11 01:21:22;;;;;;;8.68;5.90;;;18.90;99.90;;;;;;5092800;28;20499;-74
2022/08/11 01:24:08;;;;;;;8.93;6.03;;;18.80;99.90;;;;;;5092930;28;20071;-74
2022/08/11 01:26:43;;;;;;;12.02;6.53;;;18.80;99.90;;;;;;5092860;28;20207;-74
2022/08/11 01:29:11;;;;;;;10.33;6.40;;;18.90;99.90;;;;;;5092899;28;20036;-74
2022/08/11 01:31:52;;;;;;;10.40;6.30;;;18.80;99.90;;;;;;5092617;28;20109;-74
2022/08/11 01:34:26;;;;;;;8.35;6.15;;;18.80;99.90;;;;;;5092643;28;20446;-73
2022/08/11 01:37:20;;;;;;;9.45;6.20;;;18.80;99.90;;;;;;5092818;28;20048;-74
2022/08/11 01:40:04;;;;;;;11.80;6.90;;;18.80;99.90;;;;;;5092660;28;20044;-74
2022/08/11 01:46:00;;;;;;;;;;;18.80;99.90;;;;;;5087813;28;20052;-74
2022/08/11 01:48:25;;;;;;;10.23;6.80;;;18.70;99.90;;;;;;5092675;28;19927;-74
2022/08/11 01:50:54;;;;;;;10.80;7.45;;;18.70;99.90;;;;;;5092716;28;20044;-73
2022/08/11 01:54:08;;;;;;;11.43;8.15;;;18.70;99.90;;;;;;5092755;28;20047;-73
2022/08/11 01:56:56;;;;;;;13.32;7.43;;;18.70;99.90;;;;;;5010299;28;20064;-74
2022/08/11 01:59:33;;;;;;;10.07;7.15;;;18.60;99.90;;;;;;5010560;28;20049;-74
2022/08/11 02:02:01;;;;;;;11.82;7.70;;;18.60;99.90;;;;;;5055303;28;20537;-74
2022/08/11 02:04:55;;;;;;;12.75;7.53;;;18.60;99.90;;;;;;5074301;28;20059;-74
2022/08/11 02:07:20;;;;;;;13.02;7.13;;;18.50;99.90;;;;;;5092443;28;20047;-74
2022/08/11 02:12:59;;;;;;;10.23;7.35;;;18.50;99.90;;;;;;5096265;28;20055;-74
2022/08/11 02:15:28;;;;;;;11.70;7.70;;;18.60;99.90;;;;;;5094746;28;20119;-73
2022/08/11 02:18:04;;;;;;;12.18;8.23;;;18.50;99.90;;;;;;5096624;28;20117;-74
2022/08/11 02:23:43;;;;;;;11.05;7.53;;;18.40;99.90;;;;;;5096112;28;20048;-74
2022/08/11 02:26:24;;;;;;;9.68;7.40;;;18.50;99.90;;;;;;5095822;28;20044;-73
2022/08/11 02:29:17;;;;;;;12.48;7.70;;;18.50;99.90;;;;;;5095185;28;20040;-73
2022/08/11 02:35:03;;;;;;;11.18;7.25;;;18.40;99.90;;;;;;5095288;28;20052;-74
2022/08/11 02:37:32;;;;;;;9.32;7.57;;;18.40;99.90;;;;;;5075585;28;20097;-73
2022/08/11 02:39:58;;;;;;;11.25;7.25;;;18.40;99.90;;;;;;5095256;28;20070;-74
2022/08/11 02:42:44;;;;;;;12.55;8.05;;;18.40;99.90;;;;;;5095706;28;20052;-74
2022/08/11 02:45:15;;;;;;;12.65;8.18;;;18.40;99.90;;;;;;5095902;28;20044;-74
2022/08/11 02:51:13;;;;;;;10.95;7.90;;;18.30;99.90;;;;;;5095657;28;20052;-74
2022/08/11 02:54:08;;;;;;;11.52;7.85;;;18.40;99.90;;;;;;5070000;28;20431;-74
2022/08/11 02:57:06;;;;;;;12.38;8.55;;;18.40;99.90;;;;;;5094703;28;20488;-74
2022/08/11 02:59:59;;;;;;;10.50;7.85;;;18.30;99.90;;;;;;5095417;28;20086;-74
2022/08/11 03:02:30;;;;;;;14.00;8.75;;;18.30;99.90;;;;;;5094827;28;20044;-74
2022/08/11 03:05:16;;;;;;;12.27;8.40;;;18.30;99.90;;;;;;5094669;28;20036;-74
2022/08/11 03:08:06;;;;;;;13.50;8.85;;;18.30;99.90;;;;;;5095393;28;20051;-73
2022/08/11 03:16:43;;;;;;;14.38;8.38;;;18.20;99.90;;;;;;5095310;28;20048;-73
2022/08/11 03:17:02;;;;;;;13.15;8.75;;;18.30;99.90;;;;;;5094916;28;20052;-74
2022/08/11 03:19:52;;;;;;;19.27;9.70;;;18.20;99.90;;;;;;5094963;28;20048;-74
2022/08/11 03:22:29;;;;;;;13.77;8.90;;;18.20;99.90;;;;;;5094999;28;20055;-75
2022/08/11 03:24:58;;;;;;;12.90;8.73;;;18.20;99.90;;;;;;5095399;28;20048;-74
2022/08/11 03:27:35;;;;;;;13.60;9.48;;;18.20;99.90;;;;;;5095101;28;20357;-74
2022/08/11 03:30:14;;;;;;;15.18;10.05;;;18.20;99.90;;;;;;5095292;28;20119;-74
2022/08/11 03:36:40;;;;;;;16.70;10.13;;;18.20;99.90;;;;;;5094869;28;20048;-74
2022/08/11 03:39:21;;;;;;;13.27;9.77;;;18.20;99.90;;;;;;5015315;28;20056;-74
2022/08/11 03:42:17;;;;;;;12.93;9.55;;;18.20;99.90;;;;;;5031292;28;20041;-75
2022/08/11 03:44:58;;;;;;;13.77;9.48;;;18.10;99.90;;;;;;5080958;28;20048;-74
2022/08/11 03:47:40;;;;;;;16.50;9.50;;;18.10;99.90;;;;;;5110095;28;20040;-74
2022/08/11 03:50:26;;;;;;;13.00;9.27;;;18.10;99.90;;;;;;5076329;28;20140;-75
2022/08/11 03:53:00;;;;;;;16.40;10.77;;;18.10;99.90;;;;;;5093637;28;20047;-74
2022/08/11 03:55:55;;;;;;;14.57;11.00;;;18.10;99.90;;;;;;5094165;28;20040;-74
2022/08/11 03:58:30;;;;;;;17.95;10.10;;;18.10;99.90;;;;;;5093114;28;20090;-75
2022/08/11 04:01:14;;;;;;;;;;;18.10;99.90;;;;;;5076572;28;20549;-74
2022/08/11 04:03:58;;;;;;;14.38;9.60;;;18.00;99.90;;;;;;5094123;28;19920;-74
2022/08/11 04:06:58;;;;;;;19.85;9.68;;;18.00;99.90;;;;;;5094217;28;20044;-74
2022/08/11 04:09:45;;;;;;;15.77;10.43;;;18.00;99.90;;;;;;5094090;28;20430;-74
2022/08/11 04:12:34;;;;;;;14.93;9.93;;;18.00;99.90;;;;;;5094105;28;20408;-74
2022/08/11 04:18:52;;;;;;;16.70;10.55;;;18.00;99.90;;;;;;5076129;28;20056;-75
2022/08/11 04:22:04;;;;;;;12.27;10.13;;;18.00;99.90;;;;;;5093726;28;20036;-74
2022/08/11 04:24:42;;;;;;;13.23;10.52;;;18.00;99.90;;;;;;5075531;28;20054;-74
2022/08/11 04:27:28;;;;;;;13.13;10.25;;;18.30;99.90;;;;;;5075728;28;20464;-75
2022/08/11 04:30:03;;;;;;;16.27;11.20;;;18.00;99.90;;;;;;5093716;28;20089;-74
2022/08/11 04:32:34;;;;;;;16.60;11.40;;;18.00;99.90;;;;;;5074726;28;20142;-75
2022/08/11 04:34:59;;;;;;;13.73;9.75;;;18.10;99.90;;;;;;5093665;28;20059;-74
2022/08/11 04:37:52;;;;;;;17.52;10.40;;;18.10;99.90;;;;;;5092918;28;20055;-74
2022/08/11 04:40:36;;;;;;;16.50;11.32;;;18.10;99.90;;;;;;5093168;28;20040;-75
2022/08/11 04:43:27;;;;;;;13.80;10.18;;;18.10;99.90;;;;;;5093750;28;20079;-75
2022/08/11 04:46:12;;;;;;;16.30;11.25;;;18.00;99.90;;;;;;5093342;28;20138;-74
2022/08/11 05:02:16;;;;;;;16.70;10.73;;;17.90;99.90;;;;;;5091692;28;20040;-74
2022/08/11 05:05:32;;;;;;;15.48;9.80;;;17.90;99.90;;;;;;5092359;28;20047;-74
2022/08/11 05:08:45;;;;;;;20.80;9.77;;;17.90;99.90;;;;;;5058453;28;20044;-75
2022/08/11 05:11:38;;;;;;;13.40;9.65;;;17.90;99.90;;;;;;5014556;28;20106;-74
2022/08/11 05:34:48;;;;;;;11.60;8.13;;;18.00;99.90;;;;;;5092441;28;20406;-74
2022/08/11 05:37:33;;;;;;;10.30;8.10;;;18.00;99.90;;;;;;5092328;28;20527;-73
2022/08/11 05:57:32;;;;;;;11.35;7.60;;;18.30;99.90;;;;;;5096846;28;20048;-74
2022/08/11 06:00:09;;;;;;;13.18;7.47;;;18.30;99.90;;;;;;5096865;28;20036;-75
2022/08/11 06:02:49;;;;;;;14.15;7.85;;;18.40;99.90;;;;;;5096786;28;20048;-75
2022/08/11 06:05:16;;;;;;;10.68;7.90;;;18.40;99.90;;;;;;5096708;28;20044;-74
2022/08/11 06:07:42;;;;;;;12.38;8.07;;;18.80;99.90;;;;;;5096597;28;20153;-74
2022/08/11 06:10:09;;;;;;;11.77;7.03;;;18.50;99.90;;;;;;5078102;28;20044;-74
2022/08/11 06:12:36;;;;;;;12.50;7.20;;;18.50;99.90;;;;;;5096141;28;20510;-74
2022/08/11 06:15:08;;;;;;;14.80;7.55;;;18.80;99.90;;;;;;5096421;28;20047;-74
2022/08/11 06:17:44;;;;;;;13.80;7.30;;;18.70;99.90;;;;;;5096336;28;20135;-74
2022/08/11 06:20:11;;;;;;;10.23;7.15;;;18.80;99.90;;;;;;5096236;28;20468;-75
2022/08/11 06:22:40;;;;;;;10.73;6.65;;;18.70;99.90;;;;;;5078037;28;20088;-75
2022/08/11 06:25:08;;;;;;;14.13;7.10;;;18.80;99.90;;;;;;5096107;28;20036;-75
2022/08/11 06:27:36;;;;;;;10.00;6.70;;;18.90;99.90;;;;;;5095768;28;20098;-75
2022/08/11 06:30:12;;;;;;;9.82;6.38;;;19.20;99.90;;;;;;5096148;28;20075;-75
2022/08/11 06:32:40;;;;;;;10.27;6.53;;;19.00;99.90;;;;;;5094401;28;20052;-75
2022/08/11 06:35:19;;;;;;;17.75;6.75;;;19.10;99.90;;;;;;5096241;28;20450;-74
2022/08/11 06:38:05;;;;;;;11.43;6.30;;;19.10;99.90;;;;;;5110903;28;20093;-75
2022/08/11 06:41:52;;;;;;;9.73;5.97;;;19.20;99.90;;;;;;5077885;28;20128;-74
2022/08/11 06:43:52;;;;;;;15.20;6.72;;;19.30;99.90;;;;;;5078295;28;20052;-75
2022/08/11 06:46:29;;;;;;;11.88;6.60;;;19.40;99.90;;;;;;5095672;28;20097;-75
2022/08/11 06:48:59;;;;;;;13.70;5.95;;;19.50;99.90;;;;;;5096201;28;20040;-75
2022/08/11 06:51:26;;;;;;;9.75;6.13;;;19.50;99.90;;;;;;5094231;28;20460;-75
2022/08/11 06:53:58;;;;;;;11.90;6.35;;;19.80;99.90;;;;;;5095790;28;20119;-76
2022/08/11 07:02:10;;;;;;;;;;;20.00;99.90;;;;;;5097057;28;20048;-75
2022/08/11 07:04:55;;;;;;;8.93;6.03;;;19.80;99.90;;;;;;5095772;28;19916;-75
2022/08/11 07:16:48;;;;;;;8.25;5.60;;;20.20;99.90;;;;;;5095016;28;20044;-75
2022/08/11 07:30:36;;;;;;;7.57;4.25;;;20.80;99.90;;;;;;5094910;28;20044;-75
2022/08/11 07:33:03;;;;;;;8.40;4.03;;;21.00;99.90;;;;;;5095434;28;20477;-75
2022/08/11 07:35:44;;;;;;;8.48;4.18;;;20.90;99.90;;;;;;5094634;28;20055;-75
2022/08/11 07:38:20;;;;;;;7.60;4.35;;;21.00;99.90;;;;;;5111498;28;20127;-75
2022/08/11 07:40:47;;;;;;;7.78;4.30;;;21.20;99.90;;;;;;5094727;28;20422;-75
2022/08/11 07:43:13;;;;;;;10.20;4.43;;;21.20;99.90;;;;;;5094700;28;20048;-74
2022/08/11 07:54:05;;;;;;;8.07;3.83;;;21.60;99.90;;;;;;5094559;28;20286;-75
2022/08/11 07:56:36;;;;;;;7.90;3.70;;;21.70;99.90;;;;;;5076023;28;20515;-75
2022/08/11 08:18:26;;;;;;;6.22;3.55;;;22.50;99.90;;;;;;5093982;28;20146;-75
2022/08/11 08:20:54;;;;;;;5.72;3.50;;;22.60;99.90;;;;;;5075600;28;20067;-75
2022/08/11 08:23:33;;;;;;;5.88;3.10;;;22.60;99.90;;;;;;5093993;28;20476;-75
2022/08/11 08:26:03;;;;;;;6.78;3.63;;;22.70;99.90;;;;;;5075790;28;20036;-75
2022/08/11 08:28:30;;;;;;;4.95;3.00;;;23.20;99.90;;;;;;5094328;28;20115;-75
2022/08/11 08:30:57;;;;;;;4.63;3.00;;;22.90;99.90;;;;;;5093786;28;20068;-76
2022/08/11 08:33:26;;;;;;;5.78;3.03;;;23.00;99.90;;;;;;5075592;28;20421;-75
2022/08/11 08:36:15;;;;;;;5.90;2.70;;;23.20;99.90;;;;;;5075252;28;20119;-75
2022/08/11 08:38:46;;;;;;;7.20;2.92;;;23.30;99.90;;;;;;5093738;28;20044;-75
2022/08/11 08:41:14;;;;;;;7.25;2.70;;;23.40;99.90;;;;;;5093547;28;20032;-76
2022/08/11 08:43:41;;;;;;;6.43;2.70;;;23.60;99.90;;;;;;5093457;28;20044;-75
2022/08/11 08:46:10;;;;;;;7.25;2.53;;;23.70;99.90;;;;;;5093367;28;20036;-75
2022/08/11 08:48:36;;;;;;;8.32;2.50;;;23.80;99.90;;;;;;5093760;28;20050;-75
2022/08/11 08:54:02;;;;;;;4.97;2.22;;;24.10;99.90;;;;;;5093155;28;20400;-75
2022/08/11 08:56:29;;;;;;;14.10;2.65;;;24.20;99.90;;;;;;5092980;28;20484;-76
2022/08/11 08:58:57;;;;;;;11.13;2.40;;;24.30;99.90;;;;;;5093753;28;20119;-76
2022/08/11 09:01:24;;;;;;;7.93;2.45;;;24.50;99.90;;;;;;5093239;28;20143;-76
2022/08/11 09:03:50;;;;;;;8.07;2.55;;;24.60;99.90;;;;;;5093161;28;20043;-75
2022/08/11 09:06:17;;;;;;;6.82;2.45;;;24.80;99.90;;;;;;5093197;28;20051;-76
2022/08/11 09:08:44;;;;;;;8.77;2.35;;;24.90;99.90;;;;;;5093253;28;20447;-76
2022/08/11 09:13:59;;;;;;;7.53;1.95;;;25.30;99.90;;;;;;5092926;28;20040;-76
2022/08/11 09:16:25;;;;;;;7.35;2.13;;;25.40;99.90;;;;;;5092934;28;20044;-75
2022/08/11 09:18:52;;;;;;;10.00;2.17;;;25.60;99.90;;;;;;5092890;28;20040;-76
2022/08/11 09:21:21;;;;;;;5.93;2.03;;;25.70;99.90;;;;;;5092591;28;20123;-76
2022/08/11 09:29:31;;;;;;;6.97;2.13;;;26.20;99.90;;;;;;5083919;28;20533;-76
2022/08/11 09:31:58;;;;;;;5.75;2.17;;;26.40;99.90;;;;;;5074803;28;20527;-76
2022/08/11 09:34:25;;;;;;;5.45;1.90;;;26.70;99.90;;;;;;5092755;28;20124;-75
2022/08/11 09:44:45;;;;;;;5.70;2.00;;;27.40;99.90;;;;;;5092226;28;20127;-75
2022/08/11 09:45:11;;;;;;;4.78;2.00;;;27.70;99.60;;;;;;5108565;28;20048;-76
2022/08/11 09:47:37;;;;;;;3.42;1.90;;;28.10;98.00;;;;;;5092849;28;20088;-76
2022/08/11 09:50:04;;;;;;;5.35;1.80;;;28.60;96.90;;;;;;5092629;28;20052;-77
2022/08/11 09:52:35;;;;;;;4.47;1.80;;;29.20;95.60;;;;;;5092615;28;20040;-76
2022/08/11 09:55:09;;;;;;;4.32;1.80;;;30.20;92.90;;;;;;5092946;28;20036;-77
2022/08/11 10:00:30;;;;;;;3.58;1.75;;;34.10;87.70;;;;;;5092384;28;20044;-76
2022/08/11 10:02:57;;;;;;;6.43;2.20;;;36.20;82.40;;;;;;5092942;28;20048;-77
2022/08/11 10:08:12;;;;;;;2.80;1.80;;;40.40;74.50;;;;;;5093186;28;20446;-75
2022/08/11 10:10:39;;;;;;;4.20;1.95;;;42.40;69.10;;;;;;5108251;28;20067;-76
2022/08/11 10:13:13;;;;;;;3.35;1.58;;;44.00;64.10;;;;;;5092206;28;20043;-76
2022/08/11 10:15:44;;;;;;;2.60;1.60;;;45.50;61.10;;;;;;5092213;28;20143;-75
2022/08/11 10:21:33;;;;;;;2.60;1.30;;;46.80;55.10;;;;;;5092502;28;20123;-75
2022/08/11 10:26:53;;;;;;;2.67;1.33;;;49.50;54.10;;;;;;5092154;28;20044;-76
2022/08/11 10:34:53;;;;;;;5.70;1.60;;;51.30;49.40;;;;;;5095834;28;20093;-76
2022/08/11 10:37:22;;;;;;;3.13;1.30;;;51.90;48.60;;;;;;5095010;28;20368;-76
2022/08/11 10:39:49;;;;;;;3.33;1.23;;;52.50;47.70;;;;;;5096093;28;20036;-76
2022/08/11 10:45:02;;;;;;;4.38;1.48;;;52.50;46.20;;;;;;5095690;28;20048;-76
2022/08/11 10:47:35;;;;;;;2.60;1.30;;;50.80;43.40;;;;;;5095644;28;20128;-76
2022/08/11 10:58:49;;;;;;;4.88;1.60;;;50.20;45.30;;;;;;5093804;28;20416;-76
2022/08/11 11:01:30;;;;;;;3.80;1.30;;;50.30;45.20;;;;;;5095282;28;20044;-76
2022/08/11 11:04:03;;;;;;;3.45;1.40;;;49.90;44.90;;;;;;5095199;28;20047;-76
2022/08/11 11:07:02;;;;;;;5.40;1.30;;;49.50;45.20;;;;;;5077198;28;20388;-76
2022/08/11 11:09:49;;;;;;;3.60;1.30;;;48.50;45.20;;;;;;5095505;28;20040;-76
2022/08/11 11:18:08;;;;;;;4.13;1.50;;;46.90;46.30;;;;;;5095273;28;20044;-76
2022/08/11 11:20:42;;;;;;;6.72;1.77;;;46.90;46.20;;;;;;5094747;28;20404;-76
2022/08/11 11:23:32;;;;;;;8.35;1.70;;;47.90;46.40;;;;;;5076969;28;20060;-76
2022/08/11 11:26:18;;;;;;;6.43;1.77;;;49.70;45.90;;;;;;5093234;28;20092;-77
2022/08/11 11:29:19;;;;;;;4.63;1.60;;;51.90;45.50;;;;;;5095082;28;20083;-76
2022/08/11 11:32:07;;;;;;;5.00;1.50;;;53.50;44.20;;;;;;5076625;28;20056;-76
2022/08/11 11:34:42;;;;;;;5.05;1.70;;;55.60;44.30;;;;;;5095029;28;20052;-76
2022/08/11 11:37:12;;;;;;;4.47;1.70;;;57.00;43.50;;;;;;5094518;28;20050;-76
2022/08/11 11:39:41;;;;;;;2.22;1.48;;;57.80;42.70;;;;;;5094673;28;20054;-75
2022/08/11 11:42:09;;;;;;;4.97;1.60;;;58.80;42.70;;;;;;5093997;28;20036;-74
2022/08/11 11:44:38;;;;;;;3.63;1.55;;;59.30;42.70;;;;;;5076248;28;20198;-75
2022/08/11 11:47:05;;;;;;;5.75;1.63;;;59.90;42.10;;;;;;5076367;28;20377;-75
2022/08/11 11:49:34;;;;;;;3.40;1.50;;;59.60;41.60;;;;;;5095279;28;20043;-75
2022/08/11 11:52:00;;;;;;;3.55;1.30;;;59.00;40.90;;;;;;5076576;28;20040;-75
2022/08/11 11:54:32;;;;;;;2.97;1.40;;;58.90;41.20;;;;;;5094390;28;20041;-76
2022/08/11 12:01:14;;;;;;;4.25;1.40;;;58.70;40.10;;;;;;5094157;28;20097;-75
2022/08/11 12:02:35;;;;;;;2.50;1.20;;;58.40;40.70;;;;;;5094191;28;20462;-76
2022/08/11 12:05:01;;;;;;;5.85;1.50;;;58.10;40.50;;;;;;5094145;28;20075;-75
2022/08/11 12:10:15;;;;;;;3.05;1.50;;;58.10;40.40;;;;;;5093896;28;20047;-75
2022/08/11 12:15:25;;;;;;;3.00;1.13;;;57.80;40.00;;;;;;5093896;28;20048;-75
2022/08/11 12:17:51;;;;;;;2.22;1.17;;;57.60;39.70;;;;;;5093777;28;20118;-75
2022/08/11 12:20:20;;;;;;;4.57;1.27;;;57.90;39.60;;;;;;5093431;28;20044;-75
2022/08/11 12:28:17;;;;;;;1.30;0.90;;;54.90;39.40;;;;;;5093634;28;20147;-75
2022/08/11 12:30:46;;;;;;;4.20;1.30;;;53.10;39.30;;;;;;5075214;28;20043;-75
2022/08/11 12:33:13;;;;;;;2.97;1.00;;;51.60;39.80;;;;;;5075303;28;20059;-75
2022/08/11 12:35:40;;;;;;;4.50;1.20;;;50.00;40.60;;;;;;5094740;28;20484;-75
2022/08/11 12:38:07;;;;;;;4.25;1.20;;;48.00;41.10;;;;;;5114275;28;20050;-75
2022/08/11 12:46:33;;;;;;;3.22;1.42;;;43.40;43.80;;;;;;5113514;28;20094;-74
2022/08/11 12:52:00;;;;;;;3.63;1.48;;;40.60;45.60;;;;;;5111003;28;20058;-74
2022/08/11 12:54:45;;;;;;;3.95;1.58;;;39.70;46.30;;;;;;5113403;28;20463;-74
2022/08/11 13:05:32;;;;;;;4.45;1.40;;;38.10;47.50;;;;;;5113411;28;20122;-74
2022/08/11 13:08:00;;;;;;;5.45;1.60;;;37.50;48.40;;;;;;5095370;28;20054;-74
2022/08/11 13:13:14;;;;;;;4.95;1.65;;;37.00;48.70;;;;;;5092974;28;20489;-75
2022/08/11 13:15:40;;;;;;;3.75;1.40;;;36.70;48.80;;;;;;5074551;28;20105;-75
2022/08/11 13:18:06;;;;;;;5.68;1.60;;;36.60;49.20;;;;;;5093048;28;20119;-75
2022/08/11 13:20:33;;;;;;;2.53;1.30;;;36.30;49.00;;;;;;5092675;28;20055;-75
2022/08/11 13:23:00;;;;;;;2.63;1.50;;;36.20;49.50;;;;;;5092624;28;20036;-75
2022/08/11 13:25:30;;;;;;;6.90;1.42;;;36.00;49.50;;;;;;5090972;28;20441;-76
2022/08/11 13:27:58;;;;;;;2.35;1.40;;;35.80;49.70;;;;;;5093324;28;20105;-75
2022/08/11 13:33:18;;;;;;;2.97;1.20;;;35.30;49.80;;;;;;5092123;28;20131;-74
2022/08/11 13:35:51;;;;;;;4.15;1.30;;;35.30;50.10;;;;;;5091835;28;20357;-75
2022/08/11 13:38:21;;;;;;;6.28;1.50;;;35.10;50.30;;;;;;5074240;28;20188;-74
2022/08/11 13:40:48;;;;;;;5.30;1.52;;;35.10;50.40;;;;;;5092491;28;20040;-74
2022/08/11 13:43:14;;;;;;;5.53;1.40;;;35.20;50.50;;;;;;5092051;28;20036;-74
2022/08/11 13:45:42;;;;;;;3.13;1.30;;;35.00;50.20;;;;;;5092290;28;20044;-75
2022/08/11 13:48:09;;;;;;;3.30;1.40;;;34.80;49.90;;;;;;5092649;28;20488;-74
2022/08/11 13:53:23;;;;;;;4.22;1.35;;;34.60;50.00;;;;;;5092497;28;20430;-76
2022/08/11 13:55:49;;;;;;;5.22;1.30;;;34.60;50.00;;;;;;5092278;28;20428;-75
2022/08/11 13:58:17;;;;;;;4.03;1.30;;;34.50;50.20;;;;;;5092305;28;20135;-74
2022/08/11 14:00:47;;;;;;;6.50;1.50;;;34.40;50.30;;;;;;5112528;28;20055;-74
2022/08/11 14:03:13;;;;;;;5.65;1.58;;;34.30;50.50;;;;;;5098430;28;20573;-75
2022/08/11 14:05:47;;;;;;;3.30;1.48;;;34.10;51.00;;;;;;5095552;28;20036;-75
2022/08/11 14:08:23;;;;;;;5.35;1.50;;;34.00;51.50;;;;;;5096348;28;20503;-74
2022/08/11 14:13:36;;;;;;;4.47;1.42;;;34.00;52.00;;;;;;5096259;28;20380;-74
2022/08/11 14:13:40;;;;;;;4.03;1.45;;;34.00;52.00;;;;;;5095967;28;20091;-76
2022/08/11 14:16:11;;;;;;;2.30;1.45;;;34.00;52.30;;;;;;5095787;28;20487;-75
2022/08/11 14:18:42;;;;;;;4.10;1.58;;;33.80;51.90;;;;;;5096346;28;20067;-75
2022/08/11 14:23:58;;;;;;;3.85;1.60;;;33.60;52.80;;;;;;5095951;28;20443;-75
2022/08/11 14:26:25;;;;;;;3.75;1.55;;;33.60;53.00;;;;;;5096134;28;20208;-75
2022/08/11 14:29:07;;;;;;;4.20;1.60;;;33.50;52.60;;;;;;5096497;28;20097;-75
2022/08/11 14:31:36;;;;;;;2.88;1.42;;;33.40;53.50;;;;;;5095785;28;20059;-76
2022/08/11 14:34:05;;;;;;;3.25;1.55;;;33.30;53.60;;;;;;5095875;28;20216;-76
2022/08/11 14:36:46;;;;;;;2.80;1.40;;;33.20;53.50;;;;;;5095239;28;20044;-75
2022/08/11 14:39:25;;;;;;;7.55;1.60;;;33.10;54.50;;;;;;5096059;28;20059;-76
2022/08/11 14:48:01;;;;;;;5.00;1.85;;;33.30;55.40;;;;;;5095922;28;20082;-76
2022/08/11 14:50:29;;;;;;;4.72;1.65;;;33.10;55.40;;;;;;5077156;28;20044;-75
2022/08/11 14:52:59;;;;;;;4.70;2.10;;;33.10;55.50;;;;;;5095669;28;20489;-76
2022/08/11 14:58:16;;;;;;;3.38;1.60;;;33.00;55.70;;;;;;5095897;28;20143;-76
2022/08/11 15:00:43;;;;;;;5.38;1.77;;;32.90;55.50;;;;;;5095945;28;20469;-76
2022/08/11 15:03:14;;;;;;;4.70;1.60;;;32.90;55.50;;;;;;5095604;28;20075;-75
2022/08/11 15:05:46;;;;;;;4.47;1.48;;;32.70;55.90;;;;;;5077107;28;20079;-76
2022/08/11 15:08:14;;;;;;;4.10;1.60;;;32.60;55.80;;;;;;5095990;28;20451;-76
2022/08/11 15:10:40;;;;;;;6.88;1.65;;;32.60;56.00;;;;;;5077053;28;20542;-76
2022/08/11 15:13:06;;;;;;;6.45;1.85;;;32.60;56.30;;;;;;5094869;28;20488;-76
2022/08/11 15:18:30;;;;;;;3.40;1.83;;;32.30;56.60;;;;;;5094897;28;20044;-76
2022/08/11 15:37:41;;;;;;;3.38;1.65;;;32.00;57.20;;;;;;5094324;28;20465;-75
2022/08/11 15:46:28;;;;;;;4.05;2.00;;;31.70;57.40;;;;;;5094225;28;20056;-76
2022/08/11 15:49:15;;;;;;;9.75;2.10;;;31.70;58.00;;;;;;5076708;28;20051;-75
2022/08/11 15:51:49;;;;;;;4.55;1.63;;;31.60;58.30;;;;;;5094283;28;20044;-75
2022/08/11 15:54:22;;;;;;;4.97;1.83;;;31.50;58.30;;;;;;5110025;28;20526;-75
2022/08/11 15:56:50;;;;;;;4.80;1.90;;;31.50;58.70;;;;;;5094466;28;20051;-75
2022/08/11 16:04:10;;;;;;;5.40;1.90;;;31.40;58.80;;;;;;5094248;28;20080;-76
2022/08/11 16:05:04;;;;;;;4.68;1.92;;;31.30;59.00;;;;;;5109705;28;20047;-75
2022/08/11 16:07:34;;;;;;;3.35;2.00;;;31.30;59.10;;;;;;5094422;28;20055;-75
2022/08/11 16:10:07;;;;;;;6.60;1.83;;;31.30;59.00;;;;;;5075720;28;20047;-75
2022/08/11 16:18:23;;;;;;;5.40;2.00;;;31.10;59.40;;;;;;5075928;28;20458;-74
2022/08/11 16:20:54;;;;;;;7.57;1.98;;;31.10;59.70;;;;;;5093866;28;20040;-75
2022/08/11 16:23:22;;;;;;;5.18;2.00;;;31.00;59.80;;;;;;5094051;28;20032;-75
2022/08/11 16:25:50;;;;;;;5.78;2.10;;;30.90;59.90;;;;;;5093600;28;20044;-75
2022/08/11 16:28:19;;;;;;;5.40;1.80;;;30.90;60.00;;;;;;5093140;28;20044;-75
2022/08/11 16:30:45;;;;;;;4.50;2.20;;;30.90;60.00;;;;;;5094199;28;20036;-75
2022/08/11 16:33:13;;;;;;;4.10;1.80;;;30.80;60.10;;;;;;5093741;28;20052;-75
2022/08/11 16:38:36;;;;;;;4.97;1.60;;;30.70;60.20;;;;;;5093359;28;20438;-74
2022/08/11 16:41:04;;;;;;;8.68;2.13;;;30.60;60.40;;;;;;5093136;28;20046;-75
2022/08/11 16:49:14;;;;;;;6.60;1.80;;;30.50;60.80;;;;;;5093324;28;20048;-75
2022/08/11 16:51:40;;;;;;;4.45;1.80;;;30.50;61.00;;;;;;5093486;28;20435;-74
2022/08/11 16:54:06;;;;;;;5.20;1.80;;;30.30;61.10;;;;;;5093367;28;20043;-75
2022/08/11 16:56:48;;;;;;;6.25;1.73;;;30.20;61.40;;;;;;5093216;28;20047;-74
2022/08/11 16:59:24;;;;;;;3.28;1.67;;;30.20;61.90;;;;;;5093473;28;20067;-75
2022/08/11 17:01:58;;;;;;;6.90;2.10;;;30.10;62.20;;;;;;5093582;28;20058;-75
2022/08/11 17:13:17;;;;;;;5.45;1.92;;;29.70;63.70;;;;;;5092862;28;20044;-74
2022/08/11 17:16:07;;;;;;;5.10;2.13;;;29.60;63.80;;;;;;5092711;28;20054;-74
2022/08/11 17:18:43;;;;;;;5.38;1.73;;;29.60;64.50;;;;;;5092813;28;20368;-74
2022/08/11 17:24:34;;;;;;;5.45;1.98;;;29.50;65.10;;;;;;5083253;28;20059;-74
2022/08/11 17:27:02;;;;;;;6.47;2.00;;;29.40;65.10;;;;;;5074516;28;20039;-74
2022/08/11 17:29:41;;;;;;;6.53;2.00;;;29.30;65.40;;;;;;5093158;28;20097;-74
2022/08/11 17:35:31;;;;;;;8.77;2.00;;;29.10;66.40;;;;;;5051184;28;20468;-74
2022/08/11 17:38:18;;;;;;;3.38;2.00;;;29.00;66.70;;;;;;5093962;28;20345;-75
2022/08/11 17:49:10;;;;;;;5.53;2.22;;;28.70;67.50;;;;;;5099661;28;20052;-75
2022/08/11 17:59:56;;;;;;;4.22;1.92;;;28.50;67.70;;;;;;5099337;28;20048;-75
2022/08/11 18:05:19;;;;;;;10.10;2.30;;;28.40;68.00;;;;;;5099542;28;20052;-75
